createdAt,value
2023-04-23T00:00:13.597Z,7.83
2023-04-23T00:04:32.716Z,7.87
2023-04-23T00:08:33.578Z,7.91
2023-04-23T00:12:31.545Z,7.91
2023-04-23T00:16:29.565Z,7.87
2023-04-23T00:20:27.553Z,7.82
2023-04-23T00:24:25.525Z,7.73
2023-04-23T00:28:23.582Z,7.61
2023-04-23T00:32:21.653Z,7.51
2023-04-23T00:36:19.661Z,7.41
2023-04-23T00:40:17.749Z,7.30
2023-04-23T00:44:15.483Z,7.20
2023-04-23T00:48:13.454Z,7.10
2023-04-23T00:52:11.565Z,7.01
2023-04-23T00:56:09.447Z,6.93
2023-04-23T01:00:08.474Z,6.86
2023-04-23T01:04:07.756Z,6.80
2023-04-23T01:08:05.520Z,6.76
2023-04-23T01:12:04.433Z,6.71
2023-04-23T01:16:02.500Z,6.65
2023-04-23T01:20:01.496Z,6.61
2023-04-23T01:23:59.497Z,6.56
2023-04-23T01:27:58.478Z,6.50
2023-04-23T01:31:56.558Z,6.44
2023-04-23T01:35:56.401Z,6.38
2023-04-23T01:39:54.469Z,6.33
2023-04-23T01:43:52.445Z,6.30
2023-04-23T01:47:50.605Z,6.25
2023-04-23T01:51:48.404Z,6.17
2023-04-23T01:55:46.438Z,6.10
2023-04-23T01:59:44.378Z,6.02
2023-04-23T02:03:43.634Z,5.94
2023-04-23T02:07:41.353Z,5.87
2023-04-23T02:11:39.470Z,5.80
2023-04-23T02:15:37.346Z,5.75
2023-04-23T02:19:38.449Z,5.69
2023-04-23T02:23:36.422Z,5.61
2023-04-23T02:27:34.356Z,5.53
2023-04-23T02:31:32.367Z,5.49
2023-04-23T02:35:30.372Z,5.45
2023-04-23T02:39:28.447Z,5.42
2023-04-23T02:43:26.366Z,5.42
2023-04-23T02:47:24.428Z,5.49
2023-04-23T02:51:24.338Z,5.55
2023-04-23T02:55:23.337Z,5.58
2023-04-23T02:59:22.435Z,5.62
2023-04-23T03:03:23.458Z,5.71
2023-04-23T03:07:25.353Z,5.78
2023-04-23T03:11:23.296Z,5.85
2023-04-23T03:15:21.429Z,5.87
2023-04-23T03:19:19.274Z,5.85
2023-04-23T03:23:17.299Z,5.84
2023-04-23T03:27:15.262Z,5.83
2023-04-23T03:31:13.343Z,5.87
2023-04-23T03:35:11.251Z,5.99
2023-04-23T03:39:10.411Z,6.13
2023-04-23T03:43:18.246Z,6.34
2023-04-23T03:47:38.298Z,7.50
2023-04-23T03:51:36.237Z,9.32
2023-04-23T03:55:34.293Z,11.17
2023-04-23T03:59:32.259Z,12.98
2023-04-23T04:03:32.471Z,14.65
2023-04-23T04:07:23.456Z,16.37
2023-04-23T04:11:21.280Z,17.85
2023-04-23T04:15:21.208Z,19.68
2023-04-23T04:19:19.288Z,21.20
2023-04-23T04:23:17.377Z,22.40
2023-04-23T04:27:15.245Z,23.22
2023-04-23T04:31:13.212Z,23.73
2023-04-23T04:35:12.325Z,23.90
2023-04-23T04:39:10.155Z,23.98
2023-04-23T04:43:08.247Z,24.19
2023-04-23T04:47:06.205Z,24.81
2023-04-23T04:51:04.242Z,25.77
2023-04-23T04:55:02.222Z,25.80
2023-04-23T04:59:00.213Z,23.94
2023-04-23T05:02:58.343Z,21.75
2023-04-23T05:06:56.183Z,20.16
2023-04-23T05:10:54.275Z,19.05
2023-04-23T05:14:53.008Z,18.29
2023-04-23T05:18:55.211Z,17.63
2023-04-23T05:22:57.119Z,17.24
2023-04-23T05:26:55.170Z,16.86
2023-04-23T05:30:53.250Z,16.52
2023-04-23T05:34:51.130Z,16.29
2023-04-23T05:38:49.192Z,16.12
2023-04-23T05:42:47.370Z,16.02
2023-04-23T05:46:45.180Z,15.98
2023-04-23T05:50:43.101Z,15.93
2023-04-23T05:54:41.323Z,15.92
2023-04-23T05:58:39.187Z,15.97
2023-04-23T06:02:37.256Z,16.07
2023-04-23T06:06:35.084Z,16.17
2023-04-23T06:10:33.096Z,16.27
2023-04-23T06:14:31.040Z,16.34
2023-04-23T06:18:29.121Z,16.39
2023-04-23T06:22:27.160Z,16.43
2023-04-23T06:26:25.137Z,16.55
2023-04-23T06:30:23.142Z,16.66
2023-04-23T06:34:21.097Z,16.74
2023-04-23T06:38:19.082Z,16.84
2023-04-23T06:42:17.026Z,16.91
2023-04-23T06:46:28.067Z,16.94
2023-04-23T06:50:26.285Z,16.97
2023-04-23T06:54:24.028Z,17.04
2023-04-23T06:58:22.178Z,17.09
2023-04-23T07:02:20.027Z,17.12
2023-04-23T07:06:18.036Z,17.13
2023-04-23T07:10:18.005Z,17.16
2023-04-23T07:14:17.085Z,17.23
2023-04-23T07:18:15.057Z,17.34
2023-04-23T07:22:15.236Z,17.43
2023-04-23T07:26:13.066Z,17.49
2023-04-23T07:30:11.036Z,17.51
2023-04-23T07:34:10.002Z,17.54
2023-04-23T07:38:08.125Z,17.68
2023-04-23T07:42:06.123Z,17.80
2023-04-23T07:46:04.101Z,17.89
2023-04-23T07:50:02.078Z,18.03
2023-04-23T07:54:01.028Z,18.15
2023-04-23T07:57:59.355Z,18.26
2023-04-23T08:01:57.034Z,18.38
2023-04-23T08:05:55.981Z,18.46
2023-04-23T08:09:53.979Z,18.48
2023-04-23T08:13:51.947Z,18.56
2023-04-23T08:17:50.007Z,18.68
2023-04-23T08:21:41.104Z,18.74
2023-04-23T08:25:39.015Z,18.84
2023-04-23T08:29:37.047Z,18.95
2023-04-23T08:33:37.067Z,19.04
2023-04-23T08:37:35.000Z,19.11
2023-04-23T08:41:38.044Z,19.18
2023-04-23T08:45:38.153Z,19.25
2023-04-23T08:49:35.944Z,19.30
2023-04-23T08:53:36.152Z,19.31
2023-04-23T08:57:34.921Z,19.34
2023-04-23T09:01:33.897Z,19.44
2023-04-23T09:05:32.008Z,19.56
2023-04-23T09:09:30.898Z,19.56
2023-04-23T09:13:29.916Z,19.63
2023-04-23T09:17:28.072Z,19.71
2023-04-23T09:21:25.932Z,19.73
2023-04-23T09:25:24.960Z,19.70
2023-04-23T09:29:29.972Z,19.77
2023-04-23T09:33:27.894Z,19.84
2023-04-23T09:37:25.884Z,19.80
2023-04-23T09:41:40.849Z,19.73
2023-04-23T09:45:39.932Z,19.78
2023-04-23T09:49:37.883Z,19.82
2023-04-23T09:53:35.966Z,19.87
2023-04-23T09:57:33.855Z,19.90
2023-04-23T10:01:32.003Z,19.92
2023-04-23T10:05:49.830Z,19.91
2023-04-23T10:09:55.850Z,19.90
2023-04-23T10:13:53.842Z,19.93
2023-04-23T10:17:53.953Z,20.04
2023-04-23T10:21:57.854Z,20.16
2023-04-23T10:26:00.881Z,20.25
2023-04-23T10:30:00.912Z,20.32
2023-04-23T10:33:59.698Z,20.38
2023-04-23T10:37:59.805Z,20.41
2023-04-23T10:41:57.999Z,20.46
2023-04-23T10:45:55.800Z,20.55
2023-04-23T10:49:53.889Z,20.71
2023-04-23T10:53:51.768Z,20.77
2023-04-23T10:58:19.798Z,20.85
2023-04-23T11:02:38.820Z,21.01
2023-04-23T11:07:24.888Z,21.20
2023-04-23T11:11:23.786Z,21.42
2023-04-23T11:15:26.787Z,21.57
2023-04-23T11:19:25.785Z,21.72
2023-04-23T11:23:43.791Z,21.87
2023-04-23T11:27:43.731Z,21.97
2023-04-23T11:31:54.376Z,22.03
2023-04-23T11:35:58.725Z,22.16
2023-04-23T11:40:03.857Z,22.22
2023-04-23T11:44:01.802Z,22.27
2023-04-23T11:48:04.010Z,22.38
2023-04-23T11:52:02.796Z,22.47
2023-04-23T11:56:03.758Z,22.47
2023-04-23T12:00:01.790Z,22.51
2023-04-23T12:04:04.202Z,22.53
2023-04-23T12:08:06.744Z,22.59
2023-04-23T12:12:05.736Z,22.74
2023-04-23T12:16:05.787Z,22.90
2023-04-23T12:20:03.740Z,23.00
2023-04-23T12:24:05.691Z,23.13
2023-04-23T12:28:03.726Z,23.21
2023-04-23T12:32:02.725Z,23.26
2023-04-23T12:36:04.775Z,23.26
2023-04-23T12:40:02.674Z,23.37
2023-04-23T12:44:00.770Z,23.54
2023-04-23T12:47:58.823Z,23.68
2023-04-23T12:51:56.673Z,23.69
2023-04-23T12:55:54.794Z,23.67
2023-04-23T12:59:52.689Z,23.74
2023-04-23T13:03:50.738Z,23.80
2023-04-23T13:07:48.705Z,23.87
2023-04-23T13:11:39.846Z,23.97
2023-04-23T13:15:37.671Z,23.87
2023-04-23T13:19:35.642Z,23.90
2023-04-23T13:23:33.695Z,24.15
2023-04-23T13:27:31.669Z,24.49
2023-04-23T13:31:29.804Z,24.72
2023-04-23T13:35:27.659Z,24.96
2023-04-23T13:39:26.727Z,24.90
2023-04-23T13:43:24.627Z,24.79
2023-04-23T13:47:22.926Z,24.88
2023-04-23T13:51:34.802Z,24.92
2023-04-23T13:55:33.674Z,25.03
2023-04-23T13:59:31.771Z,25.15
2023-04-23T14:03:29.639Z,25.30
2023-04-23T14:07:27.652Z,25.54
2023-04-23T14:11:25.708Z,25.58
2023-04-23T14:15:24.649Z,25.28
2023-04-23T14:19:24.790Z,24.91
2023-04-23T14:24:00.616Z,24.78
2023-04-23T14:28:04.656Z,24.91
2023-04-23T14:32:02.647Z,25.09
2023-04-23T14:36:00.614Z,25.14
2023-04-23T14:39:58.557Z,25.25
2023-04-23T14:43:56.604Z,25.48
2023-04-23T14:47:50.526Z,25.66
2023-04-23T14:51:48.654Z,25.77
2023-04-23T14:55:46.627Z,25.97
2023-04-23T14:59:45.707Z,26.19
2023-04-23T15:03:43.698Z,26.33
2023-04-23T15:07:41.590Z,26.37
2023-04-23T15:11:39.555Z,26.62
2023-04-23T15:15:44.529Z,26.85
2023-04-23T15:19:42.961Z,26.94
2023-04-23T15:23:40.639Z,27.06
2023-04-23T15:27:38.571Z,27.23
2023-04-23T15:31:36.631Z,27.39
2023-04-23T15:35:42.558Z,27.43
2023-04-23T15:39:40.800Z,27.50
2023-04-23T15:43:38.543Z,27.35
2023-04-23T15:47:37.583Z,27.25
2023-04-23T15:51:28.677Z,27.39
2023-04-23T15:55:26.548Z,27.59
2023-04-23T15:59:24.525Z,27.90
2023-04-23T16:03:22.762Z,28.02
2023-04-23T16:07:20.502Z,27.60
2023-04-23T16:11:19.657Z,26.86
2023-04-23T16:15:18.561Z,26.05
2023-04-23T16:19:17.089Z,25.34
2023-04-23T16:23:14.596Z,24.69
2023-04-23T16:27:13.565Z,24.09
2023-04-23T16:31:11.513Z,23.56
2023-04-23T16:35:29.529Z,23.02
2023-04-23T16:39:27.637Z,22.59
2023-04-23T16:43:25.482Z,22.31
2023-04-23T16:47:23.484Z,22.07
2023-04-23T16:51:21.483Z,21.82
2023-04-23T16:55:21.504Z,21.56
2023-04-23T16:59:19.665Z,21.28
2023-04-23T17:03:17.697Z,21.03
2023-04-23T17:07:16.485Z,20.79
2023-04-23T17:11:14.560Z,20.57
2023-04-23T17:15:12.480Z,20.35
2023-04-23T17:19:10.449Z,20.11
2023-04-23T17:23:08.460Z,19.88
2023-04-23T17:27:06.406Z,19.66
2023-04-23T17:31:04.521Z,19.45
2023-04-23T17:35:09.505Z,19.23
2023-04-23T17:39:09.461Z,19.00
2023-04-23T17:43:07.503Z,18.79
2023-04-23T17:47:05.556Z,18.57
2023-04-23T17:51:03.542Z,18.35
2023-04-23T17:55:01.707Z,18.11
2023-04-23T17:58:59.378Z,17.85
2023-04-23T18:02:57.593Z,17.63
2023-04-23T18:06:55.385Z,17.41
2023-04-23T18:10:53.527Z,17.22
2023-04-23T18:14:51.510Z,17.05
2023-04-23T18:18:49.399Z,16.86
2023-04-23T18:22:49.382Z,16.61
2023-04-23T18:26:47.728Z,16.38
2023-04-23T18:30:45.372Z,16.20
2023-04-23T18:34:45.414Z,15.99
2023-04-23T18:38:53.425Z,15.72
2023-04-23T18:42:51.400Z,15.52
2023-04-23T18:46:50.423Z,15.35
2023-04-23T18:50:59.347Z,15.19
2023-04-23T18:54:57.360Z,15.04
2023-04-23T18:58:55.399Z,15.00
2023-04-23T19:02:53.511Z,15.01
2023-04-23T19:06:51.440Z,15.03
2023-04-23T19:10:49.338Z,15.05
2023-04-23T19:14:47.290Z,15.10
2023-04-23T19:18:45.385Z,15.12
2023-04-23T19:22:43.473Z,15.10
2023-04-23T19:26:41.341Z,15.05
2023-04-23T19:30:39.341Z,15.00
2023-04-23T19:34:39.346Z,14.96
2023-04-23T19:38:37.374Z,14.91
2023-04-23T19:42:36.318Z,14.81
2023-04-23T19:46:36.620Z,14.71
2023-04-23T19:50:34.274Z,14.57
2023-04-23T19:54:32.324Z,14.45
2023-04-23T19:58:30.368Z,14.35
2023-04-23T20:02:28.366Z,14.24
2023-04-23T20:06:26.351Z,14.12
2023-04-23T20:10:24.298Z,14.03
2023-04-23T20:14:22.247Z,13.93
2023-04-23T20:18:20.391Z,13.83
2023-04-23T20:22:18.317Z,13.74
2023-04-23T20:26:16.351Z,13.66
2023-04-23T20:30:16.299Z,13.60
2023-04-23T20:34:14.269Z,13.54
2023-04-23T20:38:12.221Z,13.46
2023-04-23T20:42:10.311Z,13.37
2023-04-23T20:46:10.509Z,13.28
2023-04-23T20:50:08.246Z,13.20
2023-04-23T20:54:06.297Z,13.11
2023-04-23T20:58:04.381Z,13.04
2023-04-23T21:02:03.194Z,12.96
2023-04-23T21:06:01.263Z,12.87
2023-04-23T21:09:59.243Z,12.79
2023-04-23T21:13:58.453Z,12.71
2023-04-23T21:17:57.228Z,12.65
2023-04-23T21:21:55.323Z,12.59
2023-04-23T21:25:54.172Z,12.53
2023-04-23T21:29:52.302Z,12.45
2023-04-23T21:33:50.277Z,12.39
2023-04-23T21:37:48.256Z,12.34
2023-04-23T21:41:46.195Z,12.28
2023-04-23T21:45:44.194Z,12.22
2023-04-23T21:49:42.275Z,12.17
2023-04-23T21:53:40.147Z,12.12
2023-04-23T21:57:38.124Z,12.07
2023-04-23T22:01:36.964Z,12.02
2023-04-23T22:05:36.170Z,11.98
2023-04-23T22:09:34.158Z,11.92
2023-04-23T22:13:32.136Z,11.88
2023-04-23T22:17:32.266Z,11.83
2023-04-23T22:21:30.224Z,11.82
2023-04-23T22:25:29.229Z,11.80
2023-04-23T22:29:28.140Z,11.78
2023-04-23T22:33:26.210Z,11.76
2023-04-23T22:37:24.098Z,11.76
2023-04-23T22:41:22.167Z,11.76
2023-04-23T22:45:20.054Z,11.73
2023-04-23T22:49:21.098Z,11.74
2023-04-23T22:53:19.080Z,11.75
2023-04-23T22:57:17.114Z,11.76
2023-04-23T23:01:15.108Z,11.76
2023-04-23T23:05:13.244Z,11.75
2023-04-23T23:09:11.092Z,11.71
2023-04-23T23:13:09.185Z,11.65
2023-04-23T23:17:07.010Z,11.57
2023-04-23T23:21:05.107Z,11.50
2023-04-23T23:25:03.058Z,11.44
2023-04-23T23:29:01.034Z,11.35
2023-04-23T23:32:59.157Z,11.27
2023-04-23T23:36:58.092Z,11.20
2023-04-23T23:40:57.048Z,11.15
2023-04-23T23:44:56.039Z,11.09
2023-04-23T23:48:54.055Z,11.05
2023-04-23T23:52:52.138Z,11.00
2023-04-23T23:56:50.015Z,10.93
